West Franklin, New Hampshire
Current Conditions -  °F | °C
As of 12:15 PM on Sunday 23 Nov 2014 (Local Time) from KLCI Reporting Station
Overcast Overcast  
Wind Chill: 52°   Ceiling: 6000
Heat Index: 52°   Visibility: 10mi
Dew Point: 39°   Wind: 12mph
Humidity: 62%   Direction: 230°SW
Pressure: 30.05"   Gusts: NA
Location:  43.4435°N, 71.6697°W
Report Text: KLCI 231715Z AUTO 23010KT 10SM OVC060 11/04 A3005 RMK AO1
Loading
Personal Weather Stations






























Interactive Weather Map New forecast layout! Learn more

10-Day Weather Forecast

Advertisements
Track Severe Weather on mobile